Time;durP1;ratioP1;P1;durP2;ratioP2;P2;SDS_P1;SDS_P2;PMS_P1;PMS_P2;Temp;Humidity;BMP_temperature;BMP_pressure;BME280_temperature;BME280_humidity;BME280_pressure;Samples;Min_cycle;Max_cycle;Signal;HPM_P1;HPM_P2
2022/04/17 00:00:50;;;;;;;0.03;0.03;;;;;;;-145.06;100.00;63404.56;10368653;28;20487;-65
2022/04/17 00:05:51;;;;;;;0.08;0.08;;;;;;;-145.06;100.00;63404.56;10368326;28;20681;-66
2022/04/17 00:10:52;;;;;;;0.10;0.10;;;;;;;-145.06;100.00;63404.56;10392290;22;20080;-64
2022/04/17 00:15:53;;;;;;;0.00;0.00;;;;;;;-145.06;100.00;63404.56;10429996;28;20027;-64
2022/04/17 00:20:53;;;;;;;0.10;0.10;;;;;;;-145.06;100.00;63404.56;10436234;28;20017;-64
2022/04/17 00:25:53;;;;;;;0.00;0.00;;;;;;;-145.06;100.00;63404.56;10410160;28;20284;-64
2022/04/17 00:30:54;;;;;;;0.10;0.10;;;;;;;-145.06;100.00;63404.56;10410658;28;20155;-64
2022/04/17 00:35:54;;;;;;;0.00;0.00;;;;;;;-145.06;100.00;63404.56;10409571;28;20029;-64
2022/04/17 00:40:55;;;;;;;0.00;0.00;;;;;;;-145.06;100.00;63404.56;10410164;28;20017;-64
2022/04/17 00:45:56;;;;;;;0.10;0.10;;;;;;;-145.06;100.00;63404.56;10409308;28;20029;-64
2022/04/17 00:51:00;;;;;;;0.00;0.00;;;;;;;-145.06;100.00;63404.56;10409833;28;20268;-64
2022/04/17 00:56:00;;;;;;;0.10;0.10;;;;;;;-145.06;100.00;63404.56;10408378;28;20017;-64
2022/04/17 01:01:00;;;;;;;0.10;0.10;;;;;;;-145.06;100.00;63404.56;10410153;28;20037;-64
2022/04/17 01:06:01;;;;;;;0.10;0.10;;;;;;;-145.06;100.00;63404.56;10400138;28;20052;-64
2022/04/17 01:11:01;;;;;;;0.10;0.10;;;;;;;-145.06;100.00;63404.56;10408636;28;20045;-64
2022/04/17 01:16:03;;;;;;;0.00;0.00;;;;;;;-145.06;100.00;63404.56;10408666;28;20171;-64
2022/04/17 01:21:07;;;;;;;0.20;0.20;;;;;;;-145.06;100.00;63404.56;10409000;28;20037;-64
2022/04/17 01:31:27;;;;;;;0.10;0.10;;;;;;;-145.06;100.00;63404.56;10409075;28;20263;-64
2022/04/17 01:36:27;;;;;;;0.10;0.10;;;;;;;-145.06;100.00;63404.56;10398884;28;20021;-64
2022/04/17 01:41:27;;;;;;;0.10;0.10;;;;;;;-145.06;100.00;63404.56;10408998;28;20418;-64
2022/04/17 01:46:28;;;;;;;0.10;0.10;;;;;;;-145.06;100.00;63404.56;10395051;28;20022;-64
2022/04/17 01:51:34;;;;;;;0.10;0.10;;;;;;;-145.06;100.00;63404.56;10366056;28;20444;-64
2022/04/17 01:56:36;;;;;;;0.17;0.17;;;;;;;-145.06;100.00;63404.56;10365904;28;20211;-64
2022/04/17 02:01:38;;;;;;;0.20;0.20;;;;;;;-145.06;100.00;63404.56;10366420;28;20021;-63
2022/04/17 02:06:39;;;;;;;0.10;0.10;;;;;;;-145.06;100.00;63404.56;10392867;28;20528;-64
2022/04/17 02:11:41;;;;;;;0.10;0.10;;;;;;;-145.06;100.00;63404.56;10406224;28;20041;-64
2022/04/17 02:16:41;;;;;;;0.10;0.10;;;;;;;-145.06;100.00;63404.56;10403548;28;20443;-64
2022/04/17 02:21:42;;;;;;;0.10;0.10;;;;;;;-145.06;100.00;63404.56;10372790;28;20026;-64
2022/04/17 02:26:42;;;;;;;0.17;0.17;;;;;;;-145.06;100.00;63404.56;10372866;28;20121;-64
2022/04/17 02:31:42;;;;;;;0.20;0.20;;;;;;;-145.06;100.00;63404.56;10373637;28;20435;-64
2022/04/17 02:36:43;;;;;;;0.20;0.20;;;;;;;-145.06;100.00;63404.56;10407271;28;20083;-64
2022/04/17 02:41:43;;;;;;;0.17;0.17;;;;;;;-145.06;100.00;63404.56;10395063;28;20025;-64
2022/04/17 02:52:02;;;;;;;0.10;0.10;;;;;;;-145.06;100.00;63404.56;10372009;28;20249;-63
2022/04/17 02:57:03;;;;;;;0.10;0.10;;;;;;;-145.06;100.00;63404.56;10371252;28;20018;-64
2022/04/17 03:07:39;;;;;;;0.20;0.20;;;;;;;-145.06;100.00;63404.56;10329087;28;20033;-64
2022/04/17 03:12:39;;;;;;;0.20;0.20;;;;;;;-145.06;100.00;63404.56;10412587;28;20021;-64
2022/04/17 03:17:40;;;;;;;0.15;0.15;;;;;;;-145.06;100.00;63404.56;10401949;28;20551;-64
2022/04/17 03:22:41;;;;;;;0.10;0.10;;;;;;;-145.06;100.00;63404.56;10370497;28;20026;-64
2022/04/17 03:27:45;;;;;;;0.10;0.10;;;;;;;-145.06;100.00;63404.56;10369167;28;20268;-64
2022/04/17 03:32:47;;;;;;;0.10;0.10;;;;;;;-145.06;100.00;63404.56;10373179;28;20017;-64
2022/04/17 03:37:47;;;;;;;0.20;0.20;;;;;;;-145.06;100.00;63404.56;10410232;28;20029;-64
2022/04/17 03:42:47;;;;;;;0.08;0.08;;;;;;;-145.06;100.00;63404.56;10406362;28;20030;-63
2022/04/17 03:47:48;;;;;;;0.20;0.20;;;;;;;-145.06;100.00;63404.56;10407807;28;20083;-63
2022/04/17 03:52:49;;;;;;;0.10;0.10;;;;;;;-145.06;100.00;63404.56;10377893;28;20268;-63
2022/04/17 03:57:50;;;;;;;0.10;0.10;;;;;;;-145.06;100.00;63404.56;10411000;28;20146;-64
2022/04/17 04:02:51;;;;;;;0.10;0.10;;;;;;;-145.06;100.00;63404.56;10410213;28;20513;-63
2022/04/17 04:07:51;;;;;;;0.00;0.00;;;;;;;-145.06;100.00;63404.56;10393463;28;20080;-63
2022/04/17 04:12:51;;;;;;;0.10;0.10;;;;;;;-145.06;100.00;63404.56;10368825;28;20424;-63
2022/04/17 04:17:52;;;;;;;0.13;0.13;;;;;;;-145.06;100.00;63404.56;10368714;28;20365;-63
2022/04/17 04:22:55;;;;;;;0.10;0.10;;;;;;;-145.06;100.00;63404.56;10367980;28;20435;-63
2022/04/17 04:33:14;;;;;;;0.10;0.10;;;;;;;-145.06;100.00;63404.56;10385875;28;20018;-63
2022/04/17 04:38:15;;;;;;;0.10;0.10;;;;;;;-145.06;100.00;63404.56;10407822;28;20017;-63
2022/04/17 04:43:16;;;;;;;0.10;0.10;;;;;;;-145.06;100.00;63404.56;10402144;28;20030;-63
2022/04/17 04:49:29;;;;;;;0.10;0.10;;;;;;;-145.06;100.00;63404.56;10367917;28;20021;-62
2022/04/17 04:53:37;;;;;;;0.10;0.10;;;;;;;-145.06;100.00;63404.56;10366651;28;20034;-63
2022/04/17 04:58:38;;;;;;;0.10;0.10;;;;;;;-145.06;100.00;63404.56;10389215;28;20132;-63
2022/04/17 05:03:39;;;;;;;0.00;0.00;;;;;;;-145.06;100.00;63404.56;10402400;28;20104;-64
2022/04/17 05:08:40;;;;;;;0.00;0.00;;;;;;;-145.06;100.00;63404.56;10407997;28;20022;-64
2022/04/17 05:13:41;;;;;;;0.00;0.00;;;;;;;-145.06;100.00;63404.56;10407324;28;20029;-64
2022/04/17 05:18:42;;;;;;;0.00;0.00;;;;;;;-145.06;100.00;63404.56;10407532;28;20032;-64
2022/04/17 05:23:42;;;;;;;0.00;0.00;;;;;;;-145.06;100.00;63404.56;10402392;28;20037;-64
2022/04/17 05:28:43;;;;;;;0.00;0.00;;;;;;;-145.06;100.00;63404.56;10367697;28;20041;-64
2022/04/17 05:33:43;;;;;;;0.00;0.00;;;;;;;-145.06;100.00;63404.56;10376256;28;20022;-64
2022/04/17 05:38:43;;;;;;;0.10;0.10;;;;;;;-145.06;100.00;63404.56;10394579;28;20033;-64
2022/04/17 05:43:43;;;;;;;0.10;0.10;;;;;;;-145.06;100.00;63404.56;10366249;28;20102;-64
2022/04/17 05:48:44;;;;;;;0.20;0.20;;;;;;;-145.06;100.00;63404.56;10366152;28;20025;-64
2022/04/17 05:53:44;;;;;;;0.10;0.10;;;;;;;-145.06;100.00;63404.56;10372105;28;20057;-64
2022/04/17 05:58:45;;;;;;;0.00;0.00;;;;;;;-145.06;100.00;63404.56;10375072;28;20268;-64
2022/04/17 06:03:45;;;;;;;0.10;0.10;;;;;;;-145.06;100.00;63404.56;10391833;28;20398;-65
2022/04/17 06:08:46;;;;;;;0.10;0.10;;;;;;;-145.06;100.00;63404.56;10414912;28;20026;-65
2022/04/17 06:13:48;;;;;;;0.10;0.10;;;;;;;-145.06;100.00;63404.56;10409173;28;20049;-65
2022/04/17 06:18:49;;;;;;;0.10;0.10;;;;;;;-145.06;100.00;63404.56;10414747;28;20091;-65
2022/04/17 06:23:49;;;;;;;0.10;0.10;;;;;;;-145.06;100.00;63404.56;10386283;28;20465;-65
2022/04/17 06:28:50;;;;;;;0.10;0.10;;;;;;;-145.06;100.00;63404.56;10392602;28;20423;-65
2022/04/17 06:33:50;;;;;;;0.13;0.13;;;;;;;-145.06;100.00;63404.56;10415716;28;20395;-65
2022/04/17 06:38:50;;;;;;;0.20;0.20;;;;;;;-145.06;100.00;63404.56;10386220;28;20026;-64
2022/04/17 06:43:51;;;;;;;0.10;0.10;;;;;;;-145.06;100.00;63404.56;10375389;28;20393;-64
2022/04/17 06:48:51;;;;;;;0.10;0.10;;;;;;;-145.06;100.00;63404.56;10391064;28;20021;-64
2022/04/17 06:53:52;;;;;;;0.10;0.10;;;;;;;-145.06;100.00;63404.56;10410971;28;20388;-64
2022/04/17 06:58:52;;;;;;;0.00;0.00;;;;;;;-145.06;100.00;63404.56;10412590;28;20076;-64
2022/04/17 07:03:53;;;;;;;0.10;0.10;;;;;;;-145.06;100.00;63404.56;10398546;28;20053;-65
2022/04/17 07:08:53;;;;;;;0.10;0.10;;;;;;;-145.06;100.00;63404.56;10412409;28;20031;-64
2022/04/17 07:13:53;;;;;;;0.10;0.10;;;;;;;-145.06;100.00;63404.56;10393768;28;20018;-65
2022/04/17 07:18:53;;;;;;;0.10;0.10;;;;;;;-145.06;100.00;63404.56;10412113;28;20013;-64
2022/04/17 07:23:54;;;;;;;0.10;0.10;;;;;;;-145.06;100.00;63404.56;10411293;28;20025;-65
2022/04/17 07:28:54;;;;;;;0.10;0.10;;;;;;;-145.06;100.00;63404.56;10407135;28;20021;-65
2022/04/17 07:33:54;;;;;;;0.00;0.00;;;;;;;-145.06;100.00;63404.56;10410725;28;20071;-65
2022/04/17 07:38:55;;;;;;;0.00;0.00;;;;;;;-145.06;100.00;63404.56;10411114;28;20068;-64
2022/04/17 07:43:55;;;;;;;0.08;0.08;;;;;;;-145.06;100.00;63404.56;10410790;28;20045;-65
2022/04/17 07:48:55;;;;;;;0.00;0.00;;;;;;;-145.06;100.00;63404.56;10410641;28;20017;-65
2022/04/17 07:53:56;;;;;;;0.10;0.10;;;;;;;-145.06;100.00;63404.56;10410205;28;20025;-65
2022/04/17 07:58:56;;;;;;;0.10;0.10;;;;;;;-145.06;100.00;63404.56;10410465;28;20024;-64
2022/04/17 08:03:56;;;;;;;0.05;0.05;;;;;;;-145.06;100.00;63404.56;10401661;28;20040;-64
2022/04/17 08:08:57;;;;;;;0.00;0.00;;;;;;;-145.06;100.00;63404.56;10409945;28;20104;-65
2022/04/17 08:13:57;;;;;;;0.10;0.10;;;;;;;-145.06;100.00;63404.56;10408833;28;20180;-65
2022/04/17 08:18:58;;;;;;;0.10;0.10;;;;;;;-145.06;100.00;63404.56;10410138;28;20376;-65
2022/04/17 08:24:00;;;;;;;0.10;0.10;;;;;;;-145.06;100.00;63404.56;10409076;28;20021;-65
2022/04/17 08:29:00;;;;;;;0.00;0.00;;;;;;;-145.06;100.00;63404.56;10409459;28;20036;-65
2022/04/17 08:34:01;;;;;;;0.10;0.10;;;;;;;-145.06;100.00;63404.56;10408131;28;20408;-65
2022/04/17 08:39:01;;;;;;;0.10;0.10;;;;;;;-145.06;100.00;63404.56;10409143;28;20104;-65
2022/04/17 08:44:01;;;;;;;0.10;0.10;;;;;;;-145.06;100.00;63404.56;10407724;28;20032;-65
2022/04/17 08:49:02;;;;;;;0.10;0.10;;;;;;;-145.06;100.00;63404.56;10397883;28;20477;-65
2022/04/17 08:54:03;;;;;;;0.10;0.10;;;;;;;-145.06;100.00;63404.56;10395082;28;20014;-65
2022/04/17 08:59:05;;;;;;;0.00;0.00;;;;;;;-145.06;100.00;63404.56;10367666;28;20026;-65
2022/04/17 09:04:06;;;;;;;0.10;0.10;;;;;;;-145.06;100.00;63404.56;10380377;28;20364;-65
2022/04/17 09:09:06;;;;;;;0.10;0.10;;;;;;;-145.06;100.00;63404.56;10407818;28;20025;-65
2022/04/17 09:14:06;;;;;;;0.10;0.10;;;;;;;-145.06;100.00;63404.56;10391205;28;20088;-65
2022/04/17 09:19:15;;;;;;;0.10;0.10;;;;;;;-145.06;100.00;63404.56;10367006;28;20267;-65
2022/04/17 09:24:26;;;;;;;0.10;0.10;;;;;;;-145.06;100.00;63404.56;10348226;28;20018;-65
2022/04/17 09:29:32;;;;;;;0.10;0.10;;;;;;;-145.06;100.00;63404.56;10385454;28;20018;-65
2022/04/17 09:34:54;;;;;;;0.10;0.10;;;;;;;-145.06;100.00;63404.56;10402268;28;20424;-65
2022/04/17 09:40:06;;;;;;;0.10;0.10;;;;;;;-145.06;100.00;63404.56;10358432;28;20290;-65
2022/04/17 09:45:07;;;;;;;0.10;0.10;;;;;;;-145.06;100.00;63404.56;10397116;28;20033;-65
2022/04/17 09:50:08;;;;;;;0.10;0.10;;;;;;;-145.06;100.00;63404.56;10410056;28;20042;-65
2022/04/17 09:55:09;;;;;;;0.10;0.10;;;;;;;-145.06;100.00;63404.56;10379072;28;20018;-65
2022/04/17 10:00:15;;;;;;;0.10;0.10;;;;;;;-145.06;100.00;63404.56;10356889;28;20018;-65
2022/04/17 10:05:17;;;;;;;0.10;0.10;;;;;;;-145.06;100.00;63404.56;10387288;28;20033;-65
2022/04/17 10:10:18;;;;;;;0.10;0.10;;;;;;;-145.06;100.00;63404.56;10376662;28;20435;-65
2022/04/17 10:15:18;;;;;;;0.10;0.10;;;;;;;-145.06;100.00;63404.56;10372673;28;20021;-65
2022/04/17 10:20:18;;;;;;;0.05;0.05;;;;;;;-145.06;100.00;63404.56;10385936;28;20041;-66
2022/04/17 10:25:22;;;;;;;0.10;0.10;;;;;;;-145.06;100.00;63404.56;10401787;28;20171;-66
2022/04/17 10:30:50;;;;;;;0.10;0.10;;;;;;;-145.06;100.00;63404.56;10398224;28;20100;-66
2022/04/17 10:36:15;;;;;;;0.10;0.10;;;;;;;-145.06;100.00;63404.56;10385020;28;20469;-66
2022/04/17 10:41:16;;;;;;;0.10;0.10;;;;;;;-145.06;100.00;63404.56;10395627;28;20469;-66
2022/04/17 10:46:18;;;;;;;0.10;0.10;;;;;;;-145.06;100.00;63404.56;10402836;28;20109;-66
2022/04/17 10:51:18;;;;;;;0.10;0.10;;;;;;;-145.06;100.00;63404.56;10381400;28;20060;-66
2022/04/17 10:56:20;;;;;;;0.10;0.10;;;;;;;-145.06;100.00;63404.56;10396125;28;20018;-66
2022/04/17 11:01:42;;;;;;;0.10;0.10;;;;;;;-145.06;100.00;63404.56;10382873;28;20435;-66
2022/04/17 11:06:43;;;;;;;0.10;0.10;;;;;;;-145.06;100.00;63404.56;10391477;28;20092;-66
2022/04/17 11:11:44;;;;;;;0.10;0.10;;;;;;;-145.06;100.00;63404.56;10376007;28;20484;-66
2022/04/17 11:16:52;;;;;;;0.10;0.10;;;;;;;-145.06;100.00;63404.56;10390123;28;20396;-66
2022/04/17 11:21:54;;;;;;;0.10;0.10;;;;;;;-145.06;100.00;63404.56;10389519;28;20033;-66
2022/04/17 11:26:54;;;;;;;0.10;0.10;;;;;;;-145.06;100.00;63404.56;10380937;28;20029;-66
2022/04/17 11:31:54;;;;;;;0.10;0.10;;;;;;;-145.06;100.00;63404.56;10397202;28;20033;-65
2022/04/17 11:36:55;;;;;;;0.10;0.10;;;;;;;-145.06;100.00;63404.56;10409152;28;20112;-65
2022/04/17 11:41:57;;;;;;;0.10;0.10;;;;;;;-145.06;100.00;63404.56;10384013;28;20553;-65
2022/04/17 11:46:57;;;;;;;0.10;0.10;;;;;;;-145.06;100.00;63404.56;10372239;28;20022;-65
2022/04/17 11:52:18;;;;;;;0.08;0.08;;;;;;;-145.06;100.00;63404.56;10378249;28;20036;-65
2022/04/17 11:57:19;;;;;;;0.10;0.10;;;;;;;-145.06;100.00;63404.56;10400567;28;20362;-65
2022/04/17 12:02:22;;;;;;;0.10;0.10;;;;;;;-145.06;100.00;63404.56;10404032;28;20025;-65
2022/04/17 12:07:24;;;;;;;0.10;0.10;;;;;;;-145.06;100.00;63404.56;10385015;28;20044;-65
2022/04/17 12:12:32;;;;;;;0.10;0.10;;;;;;;-145.06;100.00;63404.56;10386837;28;20542;-65
2022/04/17 12:17:34;;;;;;;0.10;0.10;;;;;;;-145.06;100.00;63404.56;10384473;28;20108;-65
2022/04/17 12:22:36;;;;;;;0.10;0.10;;;;;;;-145.06;100.00;63404.56;10386916;28;20022;-65
2022/04/17 12:27:36;;;;;;;0.10;0.10;;;;;;;-145.06;100.00;63404.56;10395861;28;20028;-65
2022/04/17 12:32:44;;;;;;;0.10;0.10;;;;;;;-145.06;100.00;63404.56;10394278;28;20022;-65
2022/04/17 12:37:45;;;;;;;0.10;0.10;;;;;;;-145.06;100.00;63404.56;10396378;28;20033;-65
2022/04/17 12:42:46;;;;;;;0.10;0.10;;;;;;;-145.06;100.00;63404.56;10396573;28;20029;-65
2022/04/17 12:48:00;;;;;;;0.08;0.08;;;;;;;-145.06;100.00;63404.56;10388104;28;20037;-65
2022/04/17 12:53:01;;;;;;;0.10;0.10;;;;;;;-145.06;100.00;63404.56;10393200;28;20525;-65
2022/04/17 12:58:02;;;;;;;0.10;0.10;;;;;;;-145.06;100.00;63404.56;10389604;28;20374;-65
2022/04/17 13:03:09;;;;;;;0.10;0.10;;;;;;;-145.06;100.00;63404.56;10402607;28;20108;-65
2022/04/17 13:08:10;;;;;;;0.10;0.10;;;;;;;-145.06;100.00;63404.56;10383162;28;20029;-65
2022/04/17 13:13:10;;;;;;;0.00;0.00;;;;;;;-145.06;100.00;63404.56;10389434;28;20036;-65
2022/04/17 13:18:10;;;;;;;0.10;0.10;;;;;;;-145.06;100.00;63404.56;10392841;28;20029;-65
2022/04/17 13:23:11;;;;;;;0.10;0.10;;;;;;;-145.06;100.00;63404.56;10397166;28;20057;-65
2022/04/17 13:28:12;;;;;;;0.10;0.10;;;;;;;-145.06;100.00;63404.56;10395242;28;20053;-65
2022/04/17 13:33:12;;;;;;;0.10;0.10;;;;;;;-145.06;100.00;63404.56;10395649;28;20021;-65
2022/04/17 13:38:13;;;;;;;0.10;0.10;;;;;;;-145.06;100.00;63404.56;10393073;28;20034;-65
2022/04/17 13:43:13;;;;;;;0.10;0.10;;;;;;;-145.06;100.00;63404.56;10392036;28;20485;-65
2022/04/17 13:48:14;;;;;;;0.10;0.10;;;;;;;-145.06;100.00;63404.56;10390560;28;20025;-65
2022/04/17 13:53:14;;;;;;;0.20;0.20;;;;;;;-145.06;100.00;63404.56;10387480;28;20050;-65
2022/04/17 13:58:14;;;;;;;0.10;0.10;;;;;;;-145.06;100.00;63404.56;10390223;28;20340;-65
2022/04/17 14:03:15;;;;;;;0.10;0.10;;;;;;;-145.06;100.00;63404.56;10395768;28;20026;-65
2022/04/17 14:08:16;;;;;;;0.10;0.10;;;;;;;-145.06;100.00;63404.56;10403916;28;20025;-65
2022/04/17 14:13:17;;;;;;;0.10;0.10;;;;;;;-145.06;100.00;63404.56;10411350;28;20032;-65
2022/04/17 14:18:17;;;;;;;0.10;0.10;;;;;;;-145.06;100.00;63404.56;10416254;28;20028;-66
2022/04/17 14:23:17;;;;;;;0.10;0.10;;;;;;;-145.06;100.00;63404.56;10416120;28;20021;-66
2022/04/17 14:28:18;;;;;;;0.10;0.10;;;;;;;-145.06;100.00;63404.56;10415936;28;20120;-66
2022/04/17 14:33:18;;;;;;;0.10;0.10;;;;;;;-145.06;100.00;63404.56;10416602;28;20025;-66
2022/04/17 14:38:18;;;;;;;0.00;0.00;;;;;;;-145.06;100.00;63404.56;10416009;28;20095;-66
2022/04/17 14:43:19;;;;;;;0.10;0.10;;;;;;;-145.06;100.00;63404.56;10415505;28;20287;-66
2022/04/17 14:48:19;;;;;;;0.00;0.00;;;;;;;-145.06;100.00;63404.56;10415260;28;20571;-66
2022/04/17 14:53:19;;;;;;;0.10;0.10;;;;;;;-145.06;100.00;63404.56;10402469;28;20014;-64
2022/04/17 14:58:20;;;;;;;0.00;0.00;;;;;;;-145.06;100.00;63404.56;10389893;28;20424;-64
2022/04/17 15:03:20;;;;;;;0.10;0.10;;;;;;;-145.06;100.00;63404.56;10388292;28;20416;-64
2022/04/17 15:08:22;;;;;;;0.10;0.10;;;;;;;-145.06;100.00;63404.56;10389835;28;20021;-64
2022/04/17 15:13:22;;;;;;;0.10;0.10;;;;;;;-145.06;100.00;63404.56;10395265;28;20034;-63
2022/04/17 15:18:22;;;;;;;0.10;0.10;;;;;;;-145.06;100.00;63404.56;10396291;28;20473;-62
2022/04/17 15:23:23;;;;;;;0.10;0.10;;;;;;;-145.06;100.00;63404.56;10406415;28;20595;-63
2022/04/17 15:28:23;;;;;;;0.10;0.10;;;;;;;-145.06;100.00;63404.56;10401216;28;20020;-63
2022/04/17 15:33:23;;;;;;;0.00;0.00;;;;;;;-145.06;100.00;63404.56;10454633;28;20025;-63
2022/04/17 15:38:24;;;;;;;0.10;0.10;;;;;;;-145.06;100.00;63404.56;10453644;28;20032;-63
2022/04/17 15:48:50;;;;;;;0.00;0.00;;;;;;;-145.06;100.00;63404.56;10410941;28;20041;-64
2022/04/17 15:53:50;;;;;;;0.10;0.10;;;;;;;-145.06;100.00;63404.56;10410256;28;20104;-64
2022/04/17 15:58:50;;;;;;;0.10;0.10;;;;;;;-145.06;100.00;63404.56;10419263;28;20484;-64
2022/04/17 16:03:51;;;;;;;0.10;0.10;;;;;;;-145.06;100.00;63404.56;10411237;28;20026;-64
2022/04/17 16:08:51;;;;;;;0.10;0.10;;;;;;;-145.06;100.00;63404.56;10411909;28;20029;-63
2022/04/17 16:13:52;;;;;;;0.10;0.10;;;;;;;-145.06;100.00;63404.56;10411765;28;20269;-63
2022/04/17 16:18:52;;;;;;;0.10;0.10;;;;;;;-145.06;100.00;63404.56;10411400;28;20025;-64
2022/04/17 16:23:53;;;;;;;0.10;0.10;;;;;;;-145.06;100.00;63404.56;10411198;28;20026;-63
2022/04/17 16:28:53;;;;;;;0.10;0.10;;;;;;;-145.06;100.00;63404.56;10425325;28;20029;-63
2022/04/17 16:33:53;;;;;;;0.10;0.10;;;;;;;-145.06;100.00;63404.56;10410886;28;20460;-63
2022/04/17 16:38:53;;;;;;;0.10;0.10;;;;;;;-145.06;100.00;63404.56;10410080;28;20114;-62
2022/04/17 16:43:55;;;;;;;0.10;0.10;;;;;;;-145.06;100.00;63404.56;10392967;28;20251;-63
2022/04/17 16:48:55;;;;;;;0.10;0.10;;;;;;;-145.06;100.00;63404.56;10410190;28;20389;-64
2022/04/17 16:53:56;;;;;;;0.10;0.10;;;;;;;-145.06;100.00;63404.56;10410728;28;20024;-64
2022/04/17 16:59:15;;;;;;;0.10;0.10;;;;;;;-145.06;100.00;63404.56;10437198;28;20052;-64
2022/04/17 17:04:16;;;;;;;0.10;0.10;;;;;;;-145.06;100.00;63404.56;10451789;28;20017;-64
2022/04/17 17:09:16;;;;;;;0.00;0.00;;;;;;;-145.06;100.00;63404.56;10450653;28;20116;-64
2022/04/17 17:14:16;;;;;;;0.10;0.10;;;;;;;-145.06;100.00;63404.56;10450950;28;20079;-64
2022/04/17 17:19:17;;;;;;;0.10;0.10;;;;;;;-145.06;100.00;63404.56;10450934;28;20029;-63
2022/04/17 17:24:17;;;;;;;0.10;0.10;;;;;;;-145.06;100.00;63404.56;10451783;28;20060;-63
2022/04/17 17:29:17;;;;;;;0.10;0.10;;;;;;;-145.06;100.00;63404.56;10440075;28;20025;-63
2022/04/17 17:34:18;;;;;;;0.10;0.10;;;;;;;-145.06;100.00;63404.56;10451366;28;20055;-64
2022/04/17 17:39:19;;;;;;;0.10;0.10;;;;;;;-145.06;100.00;63404.56;10450816;28;20029;-63
2022/04/17 17:44:20;;;;;;;0.10;0.10;;;;;;;-145.06;100.00;63404.56;10450516;28;20291;-63
2022/04/17 17:49:20;;;;;;;0.10;0.10;;;;;;;-145.06;100.00;63404.56;10455702;28;20142;-63
2022/04/17 17:54:21;;;;;;;0.05;0.05;;;;;;;-145.06;100.00;63404.56;10459256;28;20031;-63
2022/04/17 17:59:21;;;;;;;0.10;0.10;;;;;;;-145.06;100.00;63404.56;10425614;28;20025;-63
2022/04/17 18:04:21;;;;;;;0.10;0.10;;;;;;;-145.06;100.00;63404.56;10417559;28;20515;-63
2022/04/17 18:14:43;;;;;;;0.10;0.10;;;;;;;-145.06;100.00;63404.56;10427254;22;20045;-67
2022/04/17 18:19:44;;;;;;;0.10;0.10;;;;;;;-145.06;100.00;63404.56;10375999;28;20026;-67
2022/04/17 18:24:44;;;;;;;0.10;0.10;;;;;;;-145.06;100.00;63404.56;10374168;28;20018;-67
2022/04/17 18:29:45;;;;;;;0.10;0.10;;;;;;;-145.06;100.00;63404.56;10409629;28;20271;-65
2022/04/17 18:34:45;;;;;;;0.10;0.10;;;;;;;-145.06;100.00;63404.56;10414783;28;20056;-65
2022/04/17 18:39:46;;;;;;;0.10;0.10;;;;;;;-145.06;100.00;63404.56;10416024;28;20029;-65
2022/04/17 18:44:47;;;;;;;0.10;0.10;;;;;;;-145.06;100.00;63404.56;10414574;28;20017;-65
2022/04/17 18:49:48;;;;;;;0.10;0.10;;;;;;;-145.06;100.00;63404.56;10411139;28;20040;-65
2022/04/17 18:54:48;;;;;;;0.10;0.10;;;;;;;-145.06;100.00;63404.56;10368935;28;20022;-65
2022/04/17 18:59:48;;;;;;;0.00;0.00;;;;;;;-145.06;100.00;63404.56;10372768;28;20092;-65
2022/04/17 19:04:49;;;;;;;0.10;0.10;;;;;;;-145.06;100.00;63404.56;10373120;28;20022;-65
2022/04/17 19:09:49;;;;;;;0.10;0.10;;;;;;;-145.06;100.00;63404.56;10373575;28;20018;-65
2022/04/17 19:14:50;;;;;;;0.00;0.00;;;;;;;-145.06;100.00;63404.56;10371476;28;20026;-65
2022/04/17 19:19:50;;;;;;;0.00;0.00;;;;;;;-145.06;100.00;63404.56;10373549;28;20037;-65
2022/04/17 19:24:51;;;;;;;0.00;0.00;;;;;;;-145.06;100.00;63404.56;10369487;28;20026;-65
2022/04/17 19:29:51;;;;;;;0.00;0.00;;;;;;;-145.06;100.00;63404.56;10372017;28;20057;-66
2022/04/17 19:40:14;;;;;;;0.00;0.00;;;;;;;-145.06;100.00;63404.56;10372510;28;20465;-65
2022/04/17 19:45:17;;;;;;;0.05;0.05;;;;;;;-145.06;100.00;63404.56;10370215;28;20499;-65
2022/04/17 19:50:19;;;;;;;0.00;0.00;;;;;;;-145.06;100.00;63404.56;10372031;28;20048;-65
2022/04/17 19:55:20;;;;;;;0.00;0.00;;;;;;;-145.06;100.00;63404.56;10383348;28;20021;-65
2022/04/17 20:00:22;;;;;;;0.00;0.00;;;;;;;-145.06;100.00;63404.56;10361352;28;20035;-65
2022/04/17 20:05:22;;;;;;;0.00;0.00;;;;;;;-145.06;100.00;63404.56;10327592;28;20034;-65
2022/04/17 20:10:23;;;;;;;0.00;0.00;;;;;;;-145.06;100.00;63404.56;10336107;28;20018;-65
2022/04/17 20:15:23;;;;;;;0.00;0.00;;;;;;;-145.06;100.00;63404.56;10356098;28;20028;-65
2022/04/17 20:20:24;;;;;;;0.00;0.00;;;;;;;-145.06;100.00;63404.56;10366668;28;20025;-66
2022/04/17 20:25:25;;;;;;;0.00;0.00;;;;;;;-145.06;100.00;63404.56;10342266;28;20289;-66
2022/04/17 20:30:25;;;;;;;0.00;0.00;;;;;;;-145.06;100.00;63404.56;10335619;28;20257;-64
2022/04/17 20:35:26;;;;;;;0.00;0.00;;;;;;;-145.06;100.00;63404.56;10357757;28;20018;-65
2022/04/17 20:40:27;;;;;;;0.00;0.00;;;;;;;-145.06;100.00;63404.56;10367714;28;20013;-65
2022/04/17 20:50:47;;;;;;;0.00;0.00;;;;;;;-145.06;100.00;63404.56;10367765;28;20026;-65
2022/04/17 20:55:47;;;;;;;0.00;0.00;;;;;;;-145.06;100.00;63404.56;10354189;28;20018;-65
2022/04/17 21:00:47;;;;;;;0.00;0.00;;;;;;;-145.06;100.00;63404.56;10327241;28;20027;-64
2022/04/17 21:05:49;;;;;;;0.00;0.00;;;;;;;-145.06;100.00;63404.56;10326358;28;20042;-65
2022/04/17 21:10:51;;;;;;;0.00;0.00;;;;;;;-145.06;100.00;63404.56;10331040;28;20038;-64
2022/04/17 21:15:51;;;;;;;0.00;0.00;;;;;;;-145.06;100.00;63404.56;10332648;28;20022;-65
2022/04/17 21:20:51;;;;;;;0.00;0.00;;;;;;;-145.06;100.00;63404.56;10325886;28;20030;-65
2022/04/17 21:25:52;;;;;;;0.00;0.00;;;;;;;-145.06;100.00;63404.56;10334003;28;20283;-65
2022/04/17 21:30:52;;;;;;;0.00;0.00;;;;;;;-145.06;100.00;63404.56;10326110;28;20056;-64
2022/04/17 21:35:52;;;;;;;0.00;0.00;;;;;;;-145.06;100.00;63404.56;10325893;28;20042;-65
2022/04/17 21:40:52;;;;;;;0.00;0.00;;;;;;;-145.06;100.00;63404.56;10325820;28;20019;-65
2022/04/17 21:45:53;;;;;;;0.00;0.00;;;;;;;-145.06;100.00;63404.56;10325532;28;20030;-64
2022/04/17 21:50:53;;;;;;;0.00;0.00;;;;;;;-145.06;100.00;63404.56;10325885;28;20403;-64
2022/04/17 21:55:53;;;;;;;0.00;0.00;;;;;;;-145.06;100.00;63404.56;10349724;28;20471;-65
2022/04/17 22:06:13;;;;;;;0.00;0.00;;;;;;;-145.06;100.00;63404.56;10325679;28;20273;-64
2022/04/17 22:11:14;;;;;;;0.00;0.00;;;;;;;-145.06;100.00;63404.56;10325739;28;20113;-65
2022/04/17 22:16:14;;;;;;;0.00;0.00;;;;;;;-145.06;100.00;63404.56;10325090;28;20046;-65
2022/04/17 22:21:14;;;;;;;0.00;0.00;;;;;;;-145.06;100.00;63404.56;10325333;28;20026;-65
2022/04/17 22:26:15;;;;;;;0.00;0.00;;;;;;;-145.06;100.00;63404.56;10332966;28;20030;-64
2022/04/17 22:31:15;;;;;;;0.00;0.00;;;;;;;-145.06;100.00;63404.56;10334445;28;20027;-66
2022/04/17 22:36:15;;;;;;;0.00;0.00;;;;;;;-145.06;100.00;63404.56;10356854;28;20469;-66
2022/04/17 22:41:16;;;;;;;0.00;0.00;;;;;;;-145.06;100.00;63404.56;10372540;28;20033;-66
2022/04/17 22:46:16;;;;;;;0.00;0.00;;;;;;;-145.06;100.00;63404.56;10372690;28;20042;-65
2022/04/17 22:51:17;;;;;;;0.00;0.00;;;;;;;-145.06;100.00;63404.56;10372359;28;20022;-65
2022/04/17 22:56:17;;;;;;;0.00;0.00;;;;;;;-145.06;100.00;63404.56;10357401;28;20085;-65
2022/04/17 23:01:18;;;;;;;0.00;0.00;;;;;;;-145.06;100.00;63404.56;10332171;28;20106;-66
2022/04/17 23:06:19;;;;;;;0.00;0.00;;;;;;;-145.06;100.00;63404.56;10349904;28;20497;-67
2022/04/17 23:11:19;;;;;;;0.00;0.00;;;;;;;-145.06;100.00;63404.56;10331420;28;20048;-66
2022/04/17 23:16:19;;;;;;;0.00;0.00;;;;;;;-145.06;100.00;63404.56;10330934;28;20466;-66
2022/04/17 23:21:20;;;;;;;0.00;0.00;;;;;;;-145.06;100.00;63404.56;10330649;28;20424;-66